Terminal Aerodrome Forecast
Issued by NWS

Home | Current Version | Previous Version | Text Only | Print | Product List | Glossary On
Versions: 1 2 3 4 5 6 7 8 9 10 11 12 13 14 15 16 17
096
FTUS43 KLSX 210913 AAA
TAFSUS
TAF AMD
KSUS 210913Z 2109/2206 02006KT 6SM BR SKC
     FM211100 03008KT 5SM BR SKC
     FM211400 03008KT P6SM SCT120
     FM211800 04012KT P6SM SCT070
     FM220100 03008KT P6SM SCT200=

USA.gov is the U.S. government's official web portal to all federal, state and local government web resources and services.